createdAt,value
2017-09-07T00:00:31.181Z,85.64
2017-09-07T00:01:31.167Z,85.08
2017-09-07T00:02:31.156Z,85.36
2017-09-07T00:03:31.147Z,85.08
2017-09-07T00:04:31.285Z,85.17
2017-09-07T00:05:31.124Z,84.50
2017-09-07T00:06:31.112Z,84.50
2017-09-07T00:07:31.107Z,84.88
2017-09-07T00:08:31.090Z,84.88
2017-09-07T00:09:31.079Z,84.60
2017-09-07T00:10:31.219Z,85.17
2017-09-07T00:11:31.055Z,84.69
2017-09-07T00:12:31.044Z,84.60
2017-09-07T00:13:31.036Z,85.17
2017-09-07T00:14:31.021Z,85.08
2017-09-07T00:15:31.014Z,84.79
2017-09-07T00:16:31.152Z,85.17
2017-09-07T00:17:30.989Z,85.46
2017-09-07T00:18:30.980Z,85.46
2017-09-07T00:19:30.969Z,84.88
2017-09-07T00:20:30.957Z,85.17
2017-09-07T00:21:30.945Z,84.98
2017-09-07T00:22:31.086Z,85.17
2017-09-07T00:23:30.922Z,84.92
2017-09-07T00:24:30.914Z,84.64
2017-09-07T00:25:30.900Z,84.92
2017-09-07T00:26:30.890Z,84.55
2017-09-07T00:27:31.029Z,84.83
2017-09-07T00:28:31.020Z,84.41
2017-09-07T00:29:30.856Z,84.64
2017-09-07T00:30:30.850Z,85.27
2017-09-07T00:31:30.835Z,84.98
2017-09-07T00:32:30.825Z,84.79
2017-09-07T00:33:30.814Z,85.17
2017-09-07T00:34:30.954Z,85.27
2017-09-07T00:35:30.792Z,85.36
2017-09-07T00:36:30.781Z,85.46
2017-09-07T00:37:30.770Z,85.64
2017-09-07T00:38:30.759Z,85.74
2017-09-07T00:39:30.746Z,85.84
2017-09-07T00:40:30.887Z,85.64
2017-09-07T00:41:30.723Z,85.46
2017-09-07T00:42:30.712Z,85.46
2017-09-07T00:43:30.853Z,85.64
2017-09-07T00:44:30.690Z,85.27
2017-09-07T00:45:30.679Z,85.08
2017-09-07T00:46:30.819Z,85.36
2017-09-07T00:47:30.657Z,85.17
2017-09-07T00:48:30.648Z,85.64
2017-09-07T00:49:30.635Z,85.55
2017-09-07T00:50:30.652Z,85.17
2017-09-07T00:51:30.614Z,85.64
2017-09-07T00:52:30.753Z,85.27
2017-09-07T00:53:30.592Z,85.17
2017-09-07T00:54:30.580Z,85.36
2017-09-07T00:55:30.568Z,85.27
2017-09-07T00:56:30.557Z,85.08
2017-09-07T00:57:30.549Z,85.36
2017-09-07T00:58:30.686Z,85.55
2017-09-07T00:59:30.524Z,85.36
2017-09-07T01:00:30.510Z,84.60
2017-09-07T01:01:30.501Z,84.31
2017-09-07T01:02:30.488Z,84.22
2017-09-07T01:03:30.479Z,84.79
2017-09-07T01:04:30.616Z,84.50
2017-09-07T01:05:30.456Z,84.79
2017-09-07T01:06:30.447Z,84.31
2017-09-07T01:07:30.436Z,84.79
2017-09-07T01:08:30.422Z,84.31
2017-09-07T01:09:30.411Z,84.41
2017-09-07T01:10:30.549Z,84.12
2017-09-07T01:11:30.386Z,84.79
2017-09-07T01:12:30.378Z,85.17
2017-09-07T01:13:30.363Z,84.88
2017-09-07T01:14:30.355Z,85.08
2017-09-07T01:15:30.344Z,85.17
2017-09-07T01:16:30.483Z,85.36
2017-09-07T01:17:30.321Z,84.88
2017-09-07T01:18:30.311Z,85.36
2017-09-07T01:19:30.299Z,85.46
2017-09-07T01:20:30.288Z,85.36
2017-09-07T01:21:30.281Z,85.08
2017-09-07T01:22:30.414Z,85.36
2017-09-07T01:23:30.254Z,85.36
2017-09-07T01:24:30.242Z,85.08
2017-09-07T01:25:30.229Z,84.79
2017-09-07T01:26:30.219Z,85.17
2017-09-07T01:27:30.207Z,84.79
2017-09-07T01:28:30.349Z,85.36
2017-09-07T01:29:30.184Z,85.36
2017-09-07T01:30:30.172Z,85.36
2017-09-07T01:31:30.160Z,85.13
2017-09-07T01:32:30.151Z,84.94
2017-09-07T01:33:30.136Z,84.75
2017-09-07T01:34:30.279Z,84.75
2017-09-07T01:35:30.115Z,85.32
2017-09-07T01:36:30.102Z,85.41
2017-09-07T01:37:30.095Z,85.03
2017-09-07T01:38:30.078Z,85.32
2017-09-07T01:39:30.068Z,85.60
2017-09-07T01:40:30.206Z,85.41
2017-09-07T01:41:30.043Z,85.22
2017-09-07T01:42:30.034Z,85.13
2017-09-07T01:43:30.020Z,85.51
2017-09-07T01:44:30.010Z,85.32
2017-09-07T01:45:29.998Z,85.51
2017-09-07T01:46:30.137Z,86.08
2017-09-07T01:47:29.982Z,85.80
2017-09-07T01:48:29.964Z,85.32
2017-09-07T01:49:29.952Z,85.13
2017-09-07T01:50:29.940Z,85.32
2017-09-07T01:51:29.928Z,85.13
2017-09-07T01:52:30.067Z,85.22
2017-09-07T01:53:30.053Z,85.32
2017-09-07T01:54:29.892Z,85.13
2017-09-07T01:55:29.880Z,85.22
2017-09-07T01:56:29.867Z,85.32
2017-09-07T01:57:29.857Z,85.56
2017-09-07T01:58:29.849Z,85.70
2017-09-07T01:59:29.982Z,85.32
2017-09-07T02:00:29.823Z,85.70
2017-09-07T02:01:29.809Z,85.70
2017-09-07T02:02:29.796Z,85.41
2017-09-07T02:03:29.786Z,85.80
2017-09-07T02:04:29.774Z,85.22
2017-09-07T02:05:29.912Z,85.32
2017-09-07T02:06:29.749Z,85.41
2017-09-07T02:07:29.737Z,85.60
2017-09-07T02:08:29.725Z,85.60
2017-09-07T02:09:29.712Z,85.22
2017-09-07T02:10:29.700Z,85.51
2017-09-07T02:11:29.841Z,85.41
2017-09-07T02:12:29.677Z,85.70
2017-09-07T02:13:29.666Z,85.22
2017-09-07T02:14:29.802Z,85.32
2017-09-07T02:15:29.641Z,85.22
2017-09-07T02:16:29.630Z,85.41
2017-09-07T02:17:29.769Z,85.22
2017-09-07T02:18:29.606Z,84.17
2017-09-07T02:19:29.594Z,83.61
2017-09-07T02:20:29.583Z,83.61
2017-09-07T02:21:29.571Z,83.98
2017-09-07T02:22:29.561Z,84.56
2017-09-07T02:23:29.697Z,84.80
2017-09-07T02:24:29.536Z,85.18
2017-09-07T02:25:29.524Z,85.18
2017-09-07T02:26:29.510Z,85.75
2017-09-07T02:27:29.501Z,85.37
2017-09-07T02:28:29.487Z,85.66
2017-09-07T02:29:29.624Z,85.94
2017-09-07T02:30:29.462Z,85.56
2017-09-07T02:31:29.452Z,85.37
2017-09-07T02:32:29.439Z,85.18
2017-09-07T02:33:29.429Z,85.56
2017-09-07T02:34:29.415Z,84.99
2017-09-07T02:35:29.551Z,85.08
2017-09-07T02:36:29.389Z,84.52
2017-09-07T02:37:29.378Z,84.80
2017-09-07T02:38:29.365Z,84.52
2017-09-07T02:39:29.353Z,83.85
2017-09-07T02:40:29.351Z,83.94
2017-09-07T02:41:29.479Z,83.65
2017-09-07T02:42:29.318Z,83.85
2017-09-07T02:43:29.307Z,83.94
2017-09-07T02:44:29.293Z,83.47
2017-09-07T02:45:29.281Z,82.51
2017-09-07T02:46:29.269Z,82.61
2017-09-07T02:47:29.407Z,83.28
2017-09-07T02:48:29.243Z,83.18
2017-09-07T02:49:29.230Z,83.37
2017-09-07T02:50:29.220Z,83.28
2017-09-07T02:51:29.209Z,83.09
2017-09-07T02:52:29.196Z,83.28
2017-09-07T02:53:29.332Z,83.65
2017-09-07T02:54:29.168Z,83.75
2017-09-07T02:55:29.158Z,84.33
2017-09-07T02:56:29.146Z,84.23
2017-09-07T02:57:29.132Z,84.04
2017-09-07T02:58:29.119Z,84.13
2017-09-07T02:59:29.257Z,83.75
2017-09-07T03:00:29.095Z,82.99
2017-09-07T03:01:29.084Z,82.99
2017-09-07T03:02:29.070Z,82.61
2017-09-07T03:03:29.059Z,82.70
2017-09-07T03:04:29.046Z,82.04
2017-09-07T03:05:29.185Z,82.42
2017-09-07T03:06:29.021Z,82.04
2017-09-07T03:07:29.011Z,82.04
2017-09-07T03:08:28.998Z,82.51
2017-09-07T03:09:28.985Z,82.90
2017-09-07T03:10:28.974Z,82.70
2017-09-07T03:11:29.061Z,82.42
2017-09-07T03:12:28.948Z,82.42
2017-09-07T03:13:28.937Z,82.51
2017-09-07T03:14:28.925Z,82.23
2017-09-07T03:15:28.912Z,82.23
2017-09-07T03:16:29.002Z,82.04
2017-09-07T03:17:28.988Z,82.14
2017-09-07T03:18:28.874Z,82.51
2017-09-07T03:19:28.864Z,82.51
2017-09-07T03:20:28.852Z,82.04
2017-09-07T03:21:28.840Z,81.85
2017-09-07T03:22:28.827Z,81.76
2017-09-07T03:23:28.915Z,81.47
2017-09-07T03:24:28.806Z,81.56
2017-09-07T03:25:28.789Z,81.66
2017-09-07T03:26:28.777Z,81.66
2017-09-07T03:27:28.767Z,81.95
2017-09-07T03:28:28.758Z,82.04
2017-09-07T03:29:28.844Z,82.04
2017-09-07T03:30:28.731Z,81.18
2017-09-07T03:31:28.719Z,81.37
2017-09-07T03:32:28.709Z,81.66
2017-09-07T03:33:28.694Z,82.23
2017-09-07T03:34:28.682Z,81.95
2017-09-07T03:35:28.769Z,82.14
2017-09-07T03:36:28.659Z,82.23
2017-09-07T03:37:28.645Z,81.95
2017-09-07T03:38:28.631Z,81.56
2017-09-07T03:39:28.622Z,80.99
2017-09-07T03:40:28.709Z,80.42
2017-09-07T03:41:28.696Z,80.33
2017-09-07T03:42:28.587Z,80.42
2017-09-07T03:43:28.574Z,80.23
2017-09-07T03:44:28.562Z,80.71
2017-09-07T03:45:28.547Z,80.80
2017-09-07T03:46:28.535Z,80.80
2017-09-07T03:47:28.677Z,81.37
2017-09-07T03:48:28.511Z,80.99
2017-09-07T03:49:28.501Z,80.80
2017-09-07T03:50:28.489Z,80.52
2017-09-07T03:51:28.478Z,80.61
2017-09-07T03:52:28.465Z,80.90
2017-09-07T03:53:28.599Z,80.90
2017-09-07T03:54:28.437Z,81.37
2017-09-07T03:55:28.428Z,81.43
2017-09-07T03:56:28.414Z,81.37
2017-09-07T03:57:28.403Z,81.81
2017-09-07T03:58:28.389Z,81.81
2017-09-07T03:59:28.526Z,82.57
2017-09-07T04:00:28.368Z,82.51
2017-09-07T04:01:28.355Z,82.38
2017-09-07T04:02:28.342Z,82.48
2017-09-07T04:03:28.330Z,81.81
2017-09-07T04:04:28.318Z,82.00
2017-09-07T04:05:28.452Z,81.90
2017-09-07T04:06:28.290Z,81.90
2017-09-07T04:07:28.280Z,81.71
2017-09-07T04:08:28.268Z,82.00
2017-09-07T04:09:28.255Z,82.00
2017-09-07T04:10:28.242Z,81.62
2017-09-07T04:11:28.380Z,81.24
2017-09-07T04:12:28.217Z,81.62
2017-09-07T04:13:28.205Z,81.90
2017-09-07T04:14:28.192Z,82.38
2017-09-07T04:15:28.187Z,82.57
2017-09-07T04:16:28.167Z,82.48
2017-09-07T04:17:28.305Z,82.00
2017-09-07T04:18:28.141Z,82.09
2017-09-07T04:19:28.128Z,82.19
2017-09-07T04:20:28.118Z,82.19
2017-09-07T04:21:28.108Z,82.28
2017-09-07T04:22:28.093Z,82.38
2017-09-07T04:23:28.233Z,82.09
2017-09-07T04:24:28.067Z,82.09
2017-09-07T04:25:28.056Z,82.48
2017-09-07T04:26:28.041Z,82.48
2017-09-07T04:27:28.031Z,82.28
2017-09-07T04:28:28.020Z,82.09
2017-09-07T04:29:28.156Z,82.19
2017-09-07T04:30:27.994Z,82.76
2017-09-07T04:31:27.982Z,82.38
2017-09-07T04:32:27.969Z,81.62
2017-09-07T04:33:27.954Z,82.00
2017-09-07T04:34:27.943Z,81.62
2017-09-07T04:35:28.082Z,81.81
2017-09-07T04:36:27.918Z,82.67
2017-09-07T04:37:27.906Z,83.52
2017-09-07T04:38:27.894Z,83.76
2017-09-07T04:39:27.883Z,83.71
2017-09-07T04:40:27.869Z,84.14
2017-09-07T04:41:28.007Z,83.95
2017-09-07T04:42:27.844Z,84.33
2017-09-07T04:43:27.831Z,83.58
2017-09-07T04:44:27.815Z,83.95
2017-09-07T04:45:27.803Z,84.05
2017-09-07T04:46:27.790Z,84.24
2017-09-07T04:47:27.933Z,84.28
2017-09-07T04:48:27.766Z,84.05
2017-09-07T04:49:27.752Z,84.33
2017-09-07T04:50:27.741Z,84.28
2017-09-07T04:51:27.728Z,84.38
2017-09-07T04:52:27.715Z,84.38
2017-09-07T04:53:27.849Z,83.81
2017-09-07T04:54:27.692Z,83.52
2017-09-07T04:55:27.677Z,83.42
2017-09-07T04:56:27.663Z,83.04
2017-09-07T04:57:27.802Z,82.76
2017-09-07T04:58:27.643Z,83.04
2017-09-07T04:59:27.775Z,83.23
2017-09-07T05:00:27.614Z,83.23
2017-09-07T05:01:27.600Z,82.95
2017-09-07T05:02:27.588Z,83.23
2017-09-07T05:03:27.578Z,83.14
2017-09-07T05:04:27.561Z,83.14
2017-09-07T05:05:27.702Z,82.86
2017-09-07T05:06:27.537Z,83.33
2017-09-07T05:07:27.524Z,83.42
2017-09-07T05:08:27.511Z,83.52
2017-09-07T05:09:27.498Z,84.28
2017-09-07T05:10:27.486Z,84.09
2017-09-07T05:11:27.674Z,84.19
2017-09-07T05:12:27.495Z,84.00
2017-09-07T05:13:27.449Z,84.19
2017-09-07T05:14:27.435Z,84.14
2017-09-07T05:15:27.426Z,83.95
2017-09-07T05:16:27.409Z,84.14
2017-09-07T05:17:27.546Z,84.24
2017-09-07T05:18:27.386Z,84.38
2017-09-07T05:19:27.374Z,84.00
2017-09-07T05:20:27.360Z,84.62
2017-09-07T05:21:27.347Z,85.00
2017-09-07T05:22:27.335Z,85.28
2017-09-07T05:23:27.475Z,84.62
2017-09-07T05:24:27.310Z,84.95
2017-09-07T05:25:27.294Z,85.00
2017-09-07T05:26:27.283Z,84.91
2017-09-07T05:27:27.270Z,85.14
2017-09-07T05:28:27.256Z,84.81
2017-09-07T05:29:27.395Z,84.95
2017-09-07T05:30:27.229Z,85.10
2017-09-07T05:31:27.217Z,85.04
2017-09-07T05:32:27.204Z,85.42
2017-09-07T05:33:27.191Z,84.85
2017-09-07T05:34:27.183Z,85.04
2017-09-07T05:35:27.322Z,85.04
2017-09-07T05:36:27.153Z,84.85
2017-09-07T05:37:27.141Z,85.04
2017-09-07T05:38:27.130Z,84.38
2017-09-07T05:39:27.118Z,84.19
2017-09-07T05:40:27.104Z,84.56
2017-09-07T05:41:27.242Z,85.33
2017-09-07T05:42:27.077Z,84.76
2017-09-07T05:43:27.064Z,84.95
2017-09-07T05:44:27.052Z,84.95
2017-09-07T05:45:27.038Z,84.85
2017-09-07T05:46:27.026Z,84.56
2017-09-07T05:47:27.166Z,84.47
2017-09-07T05:48:27.001Z,84.76
2017-09-07T05:49:26.987Z,85.04
2017-09-07T05:50:26.979Z,85.33
2017-09-07T05:51:26.964Z,85.04
2017-09-07T05:52:26.951Z,84.66
2017-09-07T05:53:27.137Z,85.33
2017-09-07T05:54:26.929Z,85.24
2017-09-07T05:55:26.913Z,85.14
2017-09-07T05:56:26.899Z,85.33
2017-09-07T05:57:26.884Z,84.95
2017-09-07T05:58:26.874Z,85.38
2017-09-07T05:59:27.011Z,85.10
2017-09-07T06:00:26.849Z,85.38
2017-09-07T06:01:26.833Z,85.66
2017-09-07T06:02:26.822Z,85.38
2017-09-07T06:03:26.809Z,85.66
2017-09-07T06:04:26.796Z,86.52
2017-09-07T06:05:27.081Z,86.61
2017-09-07T06:06:26.770Z,86.90
2017-09-07T06:07:26.755Z,86.33
2017-09-07T06:08:26.741Z,86.43
2017-09-07T06:09:26.728Z,86.90
2017-09-07T06:10:26.718Z,86.90
2017-09-07T06:11:26.854Z,87.57
2017-09-07T06:12:26.840Z,87.19
2017-09-07T06:13:26.677Z,87.28
2017-09-07T06:14:26.662Z,87.38
2017-09-07T06:15:26.650Z,86.71
2017-09-07T06:16:26.638Z,86.24
2017-09-07T06:17:26.773Z,85.95
2017-09-07T06:18:26.608Z,85.76
2017-09-07T06:19:26.596Z,85.47
2017-09-07T06:20:26.584Z,85.95
2017-09-07T06:21:26.570Z,85.47
2017-09-07T06:22:26.556Z,86.33
2017-09-07T06:23:26.695Z,86.24
2017-09-07T06:24:26.532Z,86.43
2017-09-07T06:25:26.522Z,86.33
2017-09-07T06:26:26.502Z,86.80
2017-09-07T06:27:26.491Z,86.33
2017-09-07T06:28:26.478Z,86.90
2017-09-07T06:29:26.614Z,86.71
2017-09-07T06:30:26.451Z,86.99
2017-09-07T06:31:26.438Z,87.28
2017-09-07T06:32:26.423Z,87.57
2017-09-07T06:33:26.410Z,86.80
2017-09-07T06:34:26.398Z,87.09
2017-09-07T06:35:26.533Z,86.80
2017-09-07T06:36:26.369Z,86.90
2017-09-07T06:37:26.357Z,87.38
2017-09-07T06:38:26.343Z,87.09
2017-09-07T06:39:26.335Z,86.90
2017-09-07T06:40:26.324Z,87.09
2017-09-07T06:41:26.451Z,87.47
2017-09-07T06:42:26.288Z,87.19
2017-09-07T06:43:26.275Z,87.19
2017-09-07T06:44:26.263Z,87.38
2017-09-07T06:45:26.247Z,88.13
2017-09-07T06:46:26.236Z,87.28
2017-09-07T06:47:26.372Z,86.80
2017-09-07T06:48:26.209Z,86.71
2017-09-07T06:49:26.195Z,87.57
2017-09-07T06:50:26.182Z,88.13
2017-09-07T06:51:26.168Z,87.66
2017-09-07T06:52:26.155Z,86.80
2017-09-07T06:53:26.291Z,87.47
2017-09-07T06:54:26.127Z,86.90
2017-09-07T06:55:26.113Z,87.47
2017-09-07T06:56:26.101Z,86.33
2017-09-07T06:57:26.084Z,86.43
2017-09-07T06:58:26.072Z,85.86
2017-09-07T06:59:26.208Z,85.95
2017-09-07T07:00:26.045Z,86.33
2017-09-07T07:01:26.031Z,86.14
2017-09-07T07:02:26.019Z,86.43
2017-09-07T07:03:26.005Z,85.76
2017-09-07T07:04:25.991Z,85.38
2017-09-07T07:05:26.125Z,85.57
2017-09-07T07:06:25.964Z,85.28
2017-09-07T07:07:25.985Z,85.28
2017-09-07T07:08:25.940Z,85.19
2017-09-07T07:09:25.924Z,85.10
2017-09-07T07:10:25.911Z,84.81
2017-09-07T07:11:26.049Z,84.05
2017-09-07T07:12:25.886Z,84.33
2017-09-07T07:13:25.872Z,84.52
2017-09-07T07:14:25.860Z,84.52
2017-09-07T07:15:25.847Z,84.95
2017-09-07T07:16:25.833Z,84.91
2017-09-07T07:17:25.970Z,85.04
2017-09-07T07:18:25.806Z,84.19
2017-09-07T07:19:25.797Z,83.62
2017-09-07T07:20:25.781Z,83.62
2017-09-07T07:21:25.766Z,83.90
2017-09-07T07:22:25.756Z,84.19
2017-09-07T07:23:25.891Z,83.42
2017-09-07T07:24:25.729Z,82.48
2017-09-07T07:25:25.714Z,83.23
2017-09-07T07:26:25.702Z,84.28
2017-09-07T07:27:25.689Z,83.81
2017-09-07T07:28:25.675Z,83.14
2017-09-07T07:29:25.813Z,81.90
2017-09-07T07:30:25.650Z,81.90
2017-09-07T07:31:25.637Z,82.19
2017-09-07T07:32:25.625Z,82.00
2017-09-07T07:33:25.611Z,81.33
2017-09-07T07:34:25.597Z,81.90
2017-09-07T07:35:25.736Z,81.62
2017-09-07T07:36:25.571Z,81.43
2017-09-07T07:37:25.558Z,82.09
2017-09-07T07:38:25.547Z,81.33
2017-09-07T07:39:25.534Z,81.28
2017-09-07T07:40:25.520Z,80.52
2017-09-07T07:41:25.658Z,81.95
2017-09-07T07:42:25.496Z,82.04
2017-09-07T07:43:25.481Z,80.71
2017-09-07T07:44:25.469Z,79.75
2017-09-07T07:45:25.458Z,79.47
2017-09-07T07:46:25.445Z,80.33
2017-09-07T07:47:25.583Z,80.42
2017-09-07T07:48:25.421Z,80.23
2017-09-07T07:49:25.407Z,80.27
2017-09-07T07:50:25.396Z,79.03
2017-09-07T07:51:25.382Z,78.37
2017-09-07T07:52:25.369Z,77.98
2017-09-07T07:53:25.508Z,77.61
2017-09-07T07:54:25.346Z,77.61
2017-09-07T07:55:25.332Z,77.89
2017-09-07T07:56:25.320Z,77.89
2017-09-07T07:57:25.309Z,78.08
2017-09-07T07:58:25.295Z,77.22
2017-09-07T07:59:25.434Z,77.28
2017-09-07T08:00:25.273Z,78.75
2017-09-07T08:01:25.260Z,80.04
2017-09-07T08:02:25.248Z,80.27
2017-09-07T08:03:25.235Z,80.36
2017-09-07T08:04:25.225Z,79.89
2017-09-07T08:05:25.361Z,79.19
2017-09-07T08:06:25.200Z,79.41
2017-09-07T08:07:25.188Z,78.27
2017-09-07T08:08:25.175Z,79.32
2017-09-07T08:09:25.163Z,77.70
2017-09-07T08:10:25.151Z,77.89
2017-09-07T08:11:25.289Z,78.27
2017-09-07T08:12:25.128Z,78.56
2017-09-07T08:13:25.113Z,77.61
2017-09-07T08:14:25.103Z,78.27
2017-09-07T08:15:25.092Z,78.85
2017-09-07T08:16:25.081Z,77.03
2017-09-07T08:17:25.220Z,76.59
2017-09-07T08:18:25.057Z,77.36
2017-09-07T08:19:25.045Z,77.07
2017-09-07T08:20:25.035Z,77.36
2017-09-07T08:21:25.025Z,76.50
2017-09-07T08:22:25.013Z,76.79
2017-09-07T08:23:25.152Z,78.35
2017-09-07T08:24:24.992Z,75.11
2017-09-07T08:25:24.982Z,75.20
2017-09-07T08:26:24.968Z,73.49
2017-09-07T08:27:24.959Z,73.33
2017-09-07T08:28:24.948Z,74.19
2017-09-07T08:29:25.087Z,72.86
2017-09-07T08:30:24.926Z,74.38
2017-09-07T08:31:24.917Z,73.81
2017-09-07T08:32:24.906Z,73.33
2017-09-07T08:33:24.924Z,72.96
2017-09-07T08:34:24.885Z,73.62
2017-09-07T08:35:25.025Z,71.14
2017-09-07T08:36:24.865Z,71.91
2017-09-07T08:37:24.858Z,74.29
2017-09-07T08:38:24.844Z,70.86
2017-09-07T08:39:24.835Z,72.57
2017-09-07T08:40:24.822Z,72.00
2017-09-07T08:41:24.962Z,70.57
2017-09-07T08:42:24.802Z,69.14
2017-09-07T08:43:24.793Z,70.00
2017-09-07T08:44:24.783Z,69.52
2017-09-07T08:45:24.773Z,68.03
2017-09-07T08:46:24.763Z,68.12
2017-09-07T08:47:24.903Z,68.79
2017-09-07T08:48:24.761Z,69.27
2017-09-07T08:49:24.733Z,67.46
2017-09-07T08:50:24.723Z,66.98
2017-09-07T08:51:24.713Z,66.88
2017-09-07T08:52:24.704Z,67.65
2017-09-07T08:53:24.845Z,68.03
2017-09-07T08:54:24.682Z,66.50
2017-09-07T08:55:24.675Z,68.70
2017-09-07T08:56:24.665Z,68.70
2017-09-07T08:57:24.655Z,66.78
2017-09-07T08:58:24.646Z,65.64
2017-09-07T08:59:24.787Z,68.16
2017-09-07T09:00:24.626Z,65.67
2017-09-07T09:01:24.617Z,65.87
2017-09-07T09:02:24.606Z,66.82
2017-09-07T09:03:24.600Z,64.81
2017-09-07T09:04:24.590Z,66.53
2017-09-07T09:05:24.728Z,66.53
2017-09-07T09:06:24.571Z,66.44
2017-09-07T09:07:24.560Z,67.01
2017-09-07T09:08:24.553Z,68.35
2017-09-07T09:09:24.541Z,68.19
2017-09-07T09:10:24.534Z,66.72
2017-09-07T09:11:24.674Z,67.21
2017-09-07T09:12:24.516Z,68.00
2017-09-07T09:13:24.510Z,65.39
2017-09-07T09:14:24.496Z,65.20
2017-09-07T09:15:24.488Z,66.06
2017-09-07T09:16:24.479Z,68.51
2017-09-07T09:17:24.618Z,69.08
2017-09-07T09:18:24.612Z,69.27
2017-09-07T09:19:24.451Z,68.79
2017-09-07T09:20:24.441Z,66.88
2017-09-07T09:21:24.430Z,66.78
2017-09-07T09:22:24.424Z,68.98
2017-09-07T09:23:24.563Z,69.93
2017-09-07T09:24:24.404Z,70.89
2017-09-07T09:25:24.392Z,69.46
2017-09-07T09:26:24.384Z,68.88
2017-09-07T09:27:24.375Z,67.21
2017-09-07T09:28:24.516Z,66.53
2017-09-07T09:29:24.506Z,68.44
2017-09-07T09:30:24.346Z,66.35
2017-09-07T09:31:24.335Z,66.06
2017-09-07T09:32:24.327Z,66.82
2017-09-07T09:33:24.316Z,63.39
2017-09-07T09:34:24.310Z,63.67
2017-09-07T09:35:24.449Z,64.53
2017-09-07T09:36:24.288Z,64.34
2017-09-07T09:37:24.279Z,66.56
2017-09-07T09:38:24.270Z,66.66
2017-09-07T09:39:24.260Z,64.65
2017-09-07T09:40:24.250Z,66.99
2017-09-07T09:41:24.390Z,65.74
2017-09-07T09:42:24.229Z,66.92
2017-09-07T09:43:24.222Z,60.71
2017-09-07T09:44:24.213Z,61.66
2017-09-07T09:45:24.201Z,61.69
2017-09-07T09:46:24.193Z,60.23
2017-09-07T09:47:24.334Z,60.90
2017-09-07T09:48:24.174Z,60.42
2017-09-07T09:49:24.164Z,59.94
2017-09-07T09:50:24.157Z,59.72
2017-09-07T09:51:24.148Z,62.87
2017-09-07T09:52:24.139Z,63.26
2017-09-07T09:53:24.280Z,63.93
2017-09-07T09:54:24.118Z,62.59
2017-09-07T09:55:24.111Z,63.16
2017-09-07T09:56:24.102Z,61.82
2017-09-07T09:57:24.093Z,61.63
2017-09-07T09:58:24.085Z,62.59
2017-09-07T09:59:24.227Z,60.68
2017-09-07T10:00:24.065Z,62.97
2017-09-07T10:01:24.205Z,63.64
2017-09-07T10:02:24.052Z,63.76
2017-09-07T10:03:24.039Z,64.72
2017-09-07T10:04:24.032Z,66.47
2017-09-07T10:05:24.170Z,63.51
2017-09-07T10:06:24.010Z,63.06
2017-09-07T10:07:24.004Z,61.18
2017-09-07T10:08:23.995Z,58.18
2017-09-07T10:09:23.986Z,58.18
2017-09-07T10:10:23.979Z,59.91
2017-09-07T10:11:24.119Z,60.96
2017-09-07T10:12:23.959Z,61.54
2017-09-07T10:13:23.953Z,56.94
2017-09-07T10:14:23.943Z,59.81
2017-09-07T10:15:23.934Z,61.85
2017-09-07T10:16:23.928Z,60.25
2017-09-07T10:17:24.069Z,58.44
2017-09-07T10:18:23.909Z,55.75
2017-09-07T10:19:23.903Z,58.34
2017-09-07T10:20:23.894Z,56.26
2017-09-07T10:21:23.887Z,53.28
2017-09-07T10:22:23.884Z,52.33
2017-09-07T10:23:24.023Z,52.40
2017-09-07T10:24:23.864Z,53.64
2017-09-07T10:25:23.856Z,53.07
2017-09-07T10:26:23.849Z,52.87
2017-09-07T10:27:23.841Z,52.30
2017-09-07T10:28:23.832Z,54.22
2017-09-07T10:29:23.975Z,53.26
2017-09-07T10:30:23.817Z,52.59
2017-09-07T10:31:23.810Z,51.82
2017-09-07T10:32:23.802Z,51.73
2017-09-07T10:33:23.794Z,51.54
2017-09-07T10:34:23.786Z,51.42
2017-09-07T10:35:23.928Z,52.44
2017-09-07T10:36:23.774Z,55.51
2017-09-07T10:37:23.763Z,58.86
2017-09-07T10:38:23.756Z,56.56
2017-09-07T10:39:23.748Z,57.32
2017-09-07T10:40:23.741Z,56.34
2017-09-07T10:41:23.884Z,56.65
2017-09-07T10:42:23.724Z,57.51
2017-09-07T10:43:23.716Z,54.83
2017-09-07T10:44:23.709Z,54.16
2017-09-07T10:45:23.700Z,54.55
2017-09-07T10:46:23.692Z,56.27
2017-09-07T10:47:23.835Z,56.75
2017-09-07T10:48:23.675Z,56.17
2017-09-07T10:49:23.822Z,57.04
2017-09-07T10:50:23.660Z,58.09
2017-09-07T10:51:23.652Z,57.99
2017-09-07T10:52:23.644Z,55.91
2017-09-07T10:53:23.636Z,52.66
2017-09-07T10:54:23.655Z,50.87
2017-09-07T10:55:23.771Z,50.38
2017-09-07T10:56:23.612Z,52.11
2017-09-07T10:57:23.603Z,53.19
2017-09-07T10:58:23.596Z,52.42
2017-09-07T10:59:23.587Z,52.71
2017-09-07T11:00:23.582Z,53.31
2017-09-07T11:01:23.723Z,49.19
2017-09-07T11:02:23.568Z,48.88
2017-09-07T11:03:23.558Z,53.38
2017-09-07T11:04:23.851Z,51.20
2017-09-07T11:05:23.541Z,49.29
2017-09-07T11:06:23.546Z,49.50
2017-09-07T11:07:23.528Z,50.75
2017-09-07T11:08:23.520Z,50.75
2017-09-07T11:09:23.513Z,47.22
2017-09-07T11:10:23.656Z,48.47
2017-09-07T11:11:23.501Z,46.55
2017-09-07T11:12:23.492Z,47.32
2017-09-07T11:13:23.485Z,49.52
2017-09-07T11:14:23.479Z,47.61
2017-09-07T11:15:23.630Z,43.48
2017-09-07T11:16:23.472Z,44.44
2017-09-07T11:17:23.459Z,44.90
2017-09-07T11:18:23.452Z,47.49
2017-09-07T11:19:23.445Z,47.68
2017-09-07T11:20:23.439Z,46.05
2017-09-07T11:21:23.580Z,45.86
2017-09-07T11:22:23.425Z,47.39
2017-09-07T11:23:23.418Z,48.57
2017-09-07T11:24:23.412Z,47.03
2017-09-07T11:25:23.405Z,45.95
2017-09-07T11:26:23.399Z,46.41
2017-09-07T11:27:23.543Z,49.10
2017-09-07T11:28:23.384Z,49.00
2017-09-07T11:29:23.379Z,47.75
2017-09-07T11:30:23.375Z,48.49
2017-09-07T11:31:23.366Z,46.10
2017-09-07T11:32:23.360Z,49.26
2017-09-07T11:33:23.656Z,47.82
2017-09-07T11:34:23.346Z,46.86
2017-09-07T11:35:23.338Z,46.96
2017-09-07T11:36:23.333Z,46.36
2017-09-07T11:37:23.325Z,46.94
2017-09-07T11:38:23.317Z,47.49
2017-09-07T11:39:23.460Z,47.58
2017-09-07T11:40:23.304Z,49.02
2017-09-07T11:41:23.296Z,49.98
2017-09-07T11:42:23.290Z,49.21
2017-09-07T11:43:23.282Z,48.07
2017-09-07T11:44:23.275Z,51.79
2017-09-07T11:45:23.417Z,51.79
2017-09-07T11:46:23.264Z,52.01
2017-09-07T11:47:23.253Z,47.01
2017-09-07T11:48:23.395Z,48.35
2017-09-07T11:49:23.237Z,51.06
2017-09-07T11:50:23.230Z,51.44
2017-09-07T11:51:23.372Z,51.73
2017-09-07T11:52:23.216Z,50.89
2017-09-07T11:53:23.208Z,48.11
2017-09-07T11:54:23.203Z,47.44
2017-09-07T11:55:23.192Z,48.21
2017-09-07T11:56:23.186Z,48.61
2017-09-07T11:57:23.328Z,48.61
2017-09-07T11:58:23.171Z,46.89
2017-09-07T11:59:23.164Z,46.62
2017-09-07T12:00:23.157Z,47.10
2017-09-07T12:01:23.149Z,46.05
2017-09-07T12:02:23.140Z,47.20
2017-09-07T12:03:23.284Z,44.90
2017-09-07T12:04:23.277Z,44.61
2017-09-07T12:05:23.120Z,45.09
2017-09-07T12:06:23.114Z,47.17
2017-09-07T12:07:23.107Z,46.31
2017-09-07T12:08:23.100Z,47.73
2017-09-07T12:09:23.093Z,46.19
2017-09-07T12:10:23.385Z,47.32
2017-09-07T12:11:23.079Z,47.22
2017-09-07T12:12:23.072Z,48.57
2017-09-07T12:13:23.065Z,48.16
2017-09-07T12:14:23.057Z,47.11
2017-09-07T12:15:23.051Z,47.97
2017-09-07T12:16:23.194Z,52.50
2017-09-07T12:17:23.035Z,49.24
2017-09-07T12:18:23.028Z,47.44
2017-09-07T12:19:23.021Z,48.78
2017-09-07T12:20:23.014Z,49.29
2017-09-07T12:21:23.009Z,48.33
2017-09-07T12:22:23.150Z,47.17
2017-09-07T12:23:22.992Z,45.26
2017-09-07T12:24:22.984Z,44.56
2017-09-07T12:25:22.976Z,47.25
2017-09-07T12:26:22.970Z,50.12
2017-09-07T12:27:22.961Z,48.78
2017-09-07T12:28:23.105Z,48.43
2017-09-07T12:29:22.947Z,47.37
2017-09-07T12:30:22.972Z,46.12
2017-09-07T12:31:22.932Z,46.31
2017-09-07T12:32:22.928Z,47.15
2017-09-07T12:33:22.918Z,48.43
2017-09-07T12:34:23.213Z,45.64
2017-09-07T12:35:22.907Z,45.36
2017-09-07T12:36:22.898Z,45.07
2017-09-07T12:37:22.891Z,44.80
2017-09-07T12:38:22.884Z,45.28
2017-09-07T12:39:22.877Z,42.69
2017-09-07T12:40:23.020Z,44.59
2017-09-07T12:41:22.863Z,46.72
2017-09-07T12:42:22.856Z,44.49
2017-09-07T12:43:22.849Z,44.78
2017-09-07T12:44:22.843Z,47.46
2017-09-07T12:45:22.835Z,47.94
2017-09-07T12:46:22.978Z,43.73
2017-09-07T12:47:22.825Z,45.18
2017-09-07T12:48:22.814Z,44.59
2017-09-07T12:49:22.820Z,46.31
2017-09-07T12:50:22.799Z,45.83
2017-09-07T12:51:22.793Z,46.41
2017-09-07T12:52:22.938Z,45.86